Flight Track Log - Related Links

Times and Time Zones

All times are in EDT time to prevent confusion due to time zone crossing. See the N781BG flight status page for this flight to view local times or setup timezone preferences in your user account.

Time Position Orientation Groundspeed Altitude Reporting Facility
EDT Latitude Longitude Course Direction KTS MPH feet Rate Location/Type
Wed 06:05:22 PM 40.4381 -86.9325 69° East 95 109 2,100  Level Chicago Center
Wed 06:06:04 PM 40.4453 -86.9083 69° East 93 107 2,500 541 Climbing Chicago Center
Wed 06:07:13 PM 40.4581 -86.8750 63° Northeast 84 97 3,100 545 Climbing Chicago Center
Wed 06:08:05 PM 40.4664 -86.8522 64° Northeast 86 99 3,600 584 Climbing Chicago Center
Wed 06:09:06 PM 40.4717 -86.8225 77° East 83 96 4,200 492 Climbing Chicago Center
Wed 06:10:07 PM 40.4808 -86.7958 66° East 82 94 4,600 397 Climbing Chicago Center
Wed 06:11:07 PM 40.4903 -86.7664 67° East 81 93 5,000 198 Climbing Chicago Center
Wed 06:12:08 PM 40.5019 -86.7344 64° Northeast 104 120 5,000  Level Chicago Center
Wed 06:12:23 PM 40.5050 -86.7239 69° East 92 106 5,000  Level Chicago Center
Wed 06:13:08 PM 40.5119 -86.6911 74° East 116 133 5,000  Level Chicago Center
Wed 06:13:25 PM 40.5161 -86.6800 64° Northeast 116 133 5,000  Level Chicago Center
Wed 06:14:09 PM 40.5239 -86.6508 71° East 121 139 5,000  Level Chicago Center
Wed 06:14:27 PM 40.5289 -86.6386 62° Northeast 122 140 5,000 -100 Level Chicago Center
Wed 06:15:09 PM 40.5381 -86.6081 68° East 124 143 4,900  Descending Chicago Center
Wed 06:15:30 PM 40.5425 -86.5972 62° Northeast 123 142 5,000 98 Climbing Chicago Center
Wed 06:16:10 PM 40.5497 -86.5678 72° East 124 143 5,000  Level Chicago Center
Wed 06:16:32 PM 40.5550 -86.5558 60° Northeast 125 144 5,000 -98 Level Chicago Center
Wed 06:17:11 PM 40.5661 -86.5222 66° East 126 145 4,900 -97 Descending Chicago Center
Wed 06:17:34 PM 40.5714 -86.5142 49° Northeast 127 146 4,900 -100 Level Chicago Center
Wed 06:18:11 PM 40.5822 -86.4794 68° East 124 143 4,800 -95 Descending Chicago Center
Wed 06:18:37 PM 40.5875 -86.4636 66° East 126 145 4,800 98 Level Chicago Center
Wed 06:19:12 PM 40.5919 -86.4389 77° East 124 143 4,900 197 Climbing Chicago Center
Wed 06:19:38 PM 40.5975 -86.4217 67° East 124 143 5,000 100 Climbing Chicago Center
Wed 06:20:12 PM 40.6039 -86.3958 72° East 120 138 5,000  Level Chicago Center
Wed 06:20:40 PM 40.6083 -86.3811 68° East 120 138 5,000  Level Chicago Center
Wed 06:21:13 PM 40.6156 -86.3556 70° East 124 143 5,000  Level Chicago Center
Wed 06:21:42 PM 40.6200 -86.3383 71° East 123 142 5,000  Level Chicago Center
Wed 06:22:14 PM 40.6275 -86.3122 69° East 123 142 5,000 -97 Level Chicago Center
Wed 06:22:44 PM 40.6317 -86.2961 71° East 123 142 4,900 -100 Descending Chicago Center
Wed 06:23:14 PM 40.6372 -86.2717 73° East 122 140 4,900 -97 Level Chicago Center
Wed 06:23:46 PM 40.6456 -86.2467 66° East 122 140 4,800  Descending Chicago Center
Wed 06:24:15 PM 40.6492 -86.2258 77° East 123 142 4,900 97 Climbing Chicago Center
Wed 06:24:48 PM 40.6569 -86.2036 65° Northeast 123 142 4,900  Level Chicago Center
Wed 06:25:15 PM 40.6628 -86.1883 63° Northeast 122 140 4,900 190 Level Chicago Center
Wed 06:25:51 PM 40.6703 -86.1639 68° East 122 140 5,100 98 Climbing Chicago Center
Wed 06:26:16 PM 40.6767 -86.1453 66° East 121 139 5,000 -97 Descending Chicago Center
Wed 06:26:53 PM 40.6822 -86.1233 72° East 120 138 5,000 -98 Level Chicago Center
Wed 06:27:17 PM 40.6886 -86.1019 68° East 129 148 4,900  Descending Chicago Center
Wed 06:27:55 PM 40.6964 -86.0778 67° East 124 143 5,000 100 Climbing Chicago Center
Wed 06:28:17 PM 40.7025 -86.0589 67° East 123 142 5,000  Level Chicago Center
Wed 06:28:57 PM 40.7089 -86.0356 70° East 125 144 5,000  Level Chicago Center
Wed 06:29:18 PM 40.7142 -86.0183 68° East 124 143 5,000  Level Chicago Center
Wed 06:29:59 PM 40.7219 -85.9936 67° East 124 143 5,000  Level Chicago Center
Wed 06:30:19 PM 40.7281 -85.9753 66° East 125 144 5,000  Level Chicago Center
Wed 06:31:01 PM 40.7347 -85.9511 70° East 125 144 5,000  Level Chicago Center
Wed 06:32:03 PM 40.7508 -85.9006 67° East 126 145 5,000  Level Chicago Center
Wed 06:33:05 PM 40.7647 -85.8586 66° East 125 144 5,000  Level Chicago Center
Wed 06:34:07 PM 40.7769 -85.8172 69° East 123 142 5,000 -48 Level Chicago Center
Wed 06:35:09 PM 40.7908 -85.7739 67° East 126 145 4,900  Descending Chicago Center
Wed 06:36:11 PM 40.8044 -85.7267 69° East 123 142 5,000 48 Climbing Chicago Center
Wed 06:37:13 PM 40.8169 -85.6819 70° East 123 142 5,000  Level Chicago Center
Wed 06:38:16 PM 40.8283 -85.6392 71° East 124 143 5,000  Level Chicago Center
Wed 06:39:18 PM 40.8403 -85.5956 70° East 125 144 5,000  Level Chicago Center
Wed 06:40:20 PM 40.8522 -85.5536 69° East 123 142 5,000 -48 Level Chicago Center
Wed 06:41:22 PM 40.8642 -85.5111 70° East 123 142 4,900 -48 Descending Chicago Center
Wed 06:42:24 PM 40.8758 -85.4711 69° East 121 139 4,900 48 Level Chicago Center
Wed 06:43:26 PM 40.8911 -85.4219 68° East 120 138 5,000 48 Climbing Chicago Center
Wed 06:44:28 PM 40.9044 -85.3806 67° East 121 139 5,000 -97 Level Chicago Center
Wed 06:45:30 PM 40.9158 -85.3392 70° East 121 139 4,800 -48 Descending Chicago Center
Wed 06:46:32 PM 40.9267 -85.2981 71° East 121 139 4,900 97 Climbing Chicago Center
Wed 06:47:34 PM 40.9381 -85.2589 69° East 118 136 5,000 48 Climbing Chicago Center
Wed 06:48:36 PM 40.9533 -85.2114 67° East 117 135 5,000  Level Chicago Center
Wed 06:49:39 PM 40.9636 -85.1708 71° East 117 135 5,000  Level Chicago Center
Wed 06:50:41 PM 40.9736 -85.1297 72° East 117 135 5,000  Level Chicago Center
Wed 06:51:43 PM 40.9869 -85.0881 67° East 119 137 5,000  Level Chicago Center
Wed 06:52:45 PM 41.0000 -85.0469 67° East 121 139 5,000  Level Chicago Center
Wed 06:53:47 PM 41.0094 -85.0033 74° East 122 140 5,000 -48 Level Chicago Center
Wed 06:54:49 PM 41.0231 -84.9542 70° East 121 139 4,900 -48 Descending Chicago Center
Wed 06:55:51 PM 41.0350 -84.9136 69° East 120 138 4,900 97 Level Chicago Center
Wed 06:56:53 PM 41.0444 -84.8736 73° East 118 136 5,100 48 Climbing Chicago Center
Wed 06:57:55 PM 41.0561 -84.8336 69° East 117 135 5,000 -48 Descending Chicago Center
Wed 06:58:57 PM 41.0683 -84.7903 69° East 120 138 5,000  Level Chicago Center
Wed 06:59:59 PM 41.0831 -84.7408 68° East 121 139 5,000  Level Chicago Center
Wed 07:01:01 PM 41.0956 -84.6992 68° East 121 139 5,000 -48 Level Chicago Center
Wed 07:02:04 PM 41.1044 -84.6553 75° East 123 142 4,900  Descending Chicago Center
Wed 07:03:06 PM 41.1175 -84.6242 61° Northeast 113 130 5,000 -48 Climbing Chicago Center
Wed 07:04:08 PM 41.1278 -84.5922 67° East 102 117 4,800  Descending Chicago Center
Wed 07:05:10 PM 41.1378 -84.5603 67° East 97 112 5,000 97 Climbing Chicago Center
Wed 07:06:12 PM 41.1514 -84.5144 68° East 102 117 5,000 -48 Level Chicago Center
Wed 07:07:14 PM 41.1636 -84.4725 69° East 111 128 4,900  Descending Chicago Center
Wed 07:08:16 PM 41.1761 -84.4331 67° East 114 131 5,000 -48 Climbing Chicago Center
Wed 07:09:18 PM 41.1942 -84.3956 57° Northeast 116 133 4,800 -48 Descending Chicago Center
Wed 07:10:20 PM 41.2100 -84.3578 61° Northeast 118 136 4,900 -48 Climbing Chicago Center
Wed 07:11:22 PM 41.2300 -84.3153 58° Northeast 116 133 4,700 -432 Descending Chicago Center
Wed 07:12:25 PM 41.2464 -84.2792 59° Northeast 115 132 4,000 -624 Descending Chicago Center
Wed 07:13:27 PM 41.2622 -84.2417 61° Northeast 116 133 3,400 -435 Descending Chicago Center
Wed 07:14:29 PM 41.2794 -84.2036 59° Northeast 114 131 3,100 -194 Descending Chicago Center
Wed 07:15:31 PM 41.2931 -84.1664 64° Northeast 114 131 3,000 -97 Descending Chicago Center

Login

Don't have an account? Register now (free) for customized features, flight alerts, and more!